Time;durP1;ratioP1;P1;durP2;ratioP2;P2;SDS_P1;SDS_P2;PMS_P1;PMS_P2;Temp;Humidity;BMP_temperature;BMP_pressure;BME280_temperature;BME280_humidity;BME280_pressure;Samples;Min_cycle;Max_cycle;Signal;HPM_P1;HPM_P2
2021/01/06 00:01:46;;;;;;;22.20;13.93;;;2.30;99.90;;;;;;5040366;28;20727;-77
2021/01/06 00:04:11;;;;;;;22.87;14.20;;;2.30;99.90;;;;;;5044467;28;20193;-77
2021/01/06 00:06:38;;;;;;;25.23;13.90;;;2.30;99.90;;;;;;5023364;28;20232;-77
2021/01/06 00:09:05;;;;;;;24.53;14.23;;;2.30;99.90;;;;;;5025280;28;20543;-77
2021/01/06 00:11:32;;;;;;;22.33;15.63;;;2.30;99.90;;;;;;5041804;28;20466;-77
2021/01/06 00:13:58;;;;;;;23.50;13.40;;;2.30;99.90;;;;;;5042356;28;20452;-77
2021/01/06 00:16:24;;;;;;;27.07;13.63;;;2.20;99.90;;;;;;5043260;28;20845;-77
2021/01/06 00:18:51;;;;;;;20.63;13.27;;;2.20;99.90;;;;;;5042797;28;20179;-78
2021/01/06 00:21:16;;;;;;;22.00;12.80;;;2.20;99.90;;;;;;5027286;28;20199;-77
2021/01/06 00:23:42;;;;;;;22.03;14.03;;;2.30;99.90;;;;;;5041924;28;20440;-77
2021/01/06 00:26:07;;;;;;;25.27;13.10;;;2.20;99.90;;;;;;5043444;28;20177;-77
2021/01/06 00:28:33;;;;;;;23.70;13.10;;;2.20;99.90;;;;;;5023472;28;20182;-77
2021/01/06 00:30:59;;;;;;;21.00;14.13;;;2.30;99.90;;;;;;5041638;28;20588;-77
2021/01/06 00:33:29;;;;;;;22.23;12.63;;;2.20;99.90;;;;;;5042240;28;20211;-77
2021/01/06 00:35:57;;;;;;;20.80;12.60;;;2.30;99.90;;;;;;5041124;28;20426;-77
2021/01/06 00:38:24;;;;;;;25.47;13.13;;;2.30;99.90;;;;;;5042424;28;20432;-77
2021/01/06 00:40:49;;;;;;;27.70;14.00;;;2.30;99.90;;;;;;5039968;28;20456;-77
2021/01/06 00:43:17;;;;;;;24.13;13.47;;;2.20;99.90;;;;;;5043578;28;20701;-77
2021/01/06 00:45:43;;;;;;;19.83;13.00;;;2.20;99.90;;;;;;5018466;28;20267;-76
2021/01/06 00:48:10;;;;;;;23.77;13.17;;;2.10;99.90;;;;;;5025182;28;20445;-77
2021/01/06 00:50:35;;;;;;;25.37;14.97;;;2.10;99.90;;;;;;5040406;28;20403;-76
2021/01/06 00:53:03;;;;;;;25.07;13.93;;;2.10;99.90;;;;;;5041603;28;20454;-76
2021/01/06 00:55:29;;;;;;;22.53;13.80;;;2.10;99.90;;;;;;5040780;28;20178;-77
2021/01/06 00:57:55;;;;;;;19.33;11.70;;;2.10;99.90;;;;;;5040715;28;20511;-77
2021/01/06 01:00:23;;;;;;;21.87;12.47;;;2.10;99.90;;;;;;5042264;28;20188;-77
2021/01/06 01:02:52;;;;;;;20.17;11.47;;;2.10;99.90;;;;;;5021856;28;21045;-77
2021/01/06 01:05:23;;;;;;;23.20;12.50;;;2.10;99.90;;;;;;5042817;28;20430;-77
2021/01/06 01:07:49;;;;;;;20.40;12.20;;;2.10;99.90;;;;;;5039514;28;20458;-77
2021/01/06 01:10:26;;;;;;;16.00;11.27;;;2.00;99.90;;;;;;5042841;28;20392;-77
2021/01/06 01:12:52;;;;;;;22.10;12.53;;;2.00;99.90;;;;;;5037364;28;20450;-76
2021/01/06 01:15:20;;;;;;;20.77;11.33;;;2.00;99.90;;;;;;5042887;28;20491;-77
2021/01/06 01:17:45;;;;;;;19.33;11.30;;;1.90;99.90;;;;;;5039305;28;20170;-77
2021/01/06 01:20:12;;;;;;;20.03;11.20;;;1.90;99.90;;;;;;5042514;28;20550;-77
2021/01/06 01:22:37;;;;;;;21.23;12.70;;;2.00;99.90;;;;;;5039638;28;20738;-77
2021/01/06 01:25:04;;;;;;;19.50;11.90;;;2.00;99.90;;;;;;5041630;28;20499;-77
2021/01/06 01:27:29;;;;;;;20.50;12.17;;;2.00;99.90;;;;;;5040896;28;20547;-77
2021/01/06 01:29:55;;;;;;;17.53;11.30;;;2.00;99.90;;;;;;5022535;28;20395;-76
2021/01/06 01:32:20;;;;;;;16.33;9.97;;;1.90;99.90;;;;;;5024329;28;20183;-77
2021/01/06 01:34:45;;;;;;;20.67;12.27;;;2.00;99.90;;;;;;5039021;28;20226;-77
2021/01/06 01:37:11;;;;;;;23.83;11.87;;;1.90;99.90;;;;;;5042615;28;20189;-77
2021/01/06 01:39:36;;;;;;;16.83;10.47;;;1.90;99.90;;;;;;5040001;28;20192;-77
2021/01/06 01:42:02;;;;;;;19.83;11.60;;;1.90;99.90;;;;;;5041203;28;20203;-78
2021/01/06 01:44:29;;;;;;;20.33;11.07;;;1.90;99.90;;;;;;5041002;28;20289;-77
2021/01/06 01:47:06;;;;;;;19.43;10.80;;;1.90;99.90;;;;;;5040067;28;20181;-77
2021/01/06 01:49:47;;;;;;;18.40;10.30;;;1.90;99.90;;;;;;5022690;28;20424;-77
2021/01/06 01:52:39;;;;;;;16.00;10.17;;;1.90;99.90;;;;;;5035137;28;20394;-77
2021/01/06 01:55:06;;;;;;;16.87;10.67;;;1.90;99.90;;;;;;5040592;28;20393;-77
2021/01/06 01:57:48;;;;;;;15.77;10.27;;;1.90;99.90;;;;;;5040491;28;20430;-77
2021/01/06 02:00:20;;;;;;;15.10;9.63;;;1.80;99.90;;;;;;5034670;28;20416;-77
2021/01/06 02:03:21;;;;;;;14.17;9.97;;;1.80;99.90;;;;;;5035352;28;20949;-77
2021/01/06 02:05:55;;;;;;;16.53;10.40;;;1.80;99.90;;;;;;5036875;28;20928;-78
2021/01/06 02:08:35;;;;;;;18.70;10.00;;;1.80;99.90;;;;;;5045488;28;20433;-78
2021/01/06 02:11:29;;;;;;;17.50;10.63;;;1.80;99.90;;;;;;5042880;28;20947;-78
2021/01/06 02:14:23;;;;;;;15.67;9.27;;;1.80;99.90;;;;;;5026311;28;21037;-78
2021/01/06 02:17:05;;;;;;;14.73;9.70;;;1.80;99.90;;;;;;5025410;28;20538;-78
2021/01/06 02:19:40;;;;;;;17.77;9.00;;;1.90;99.90;;;;;;5043266;28;20759;-78
2021/01/06 02:22:08;;;;;;;15.50;10.87;;;1.80;99.90;;;;;;5040966;28;20442;-78
2021/01/06 02:24:34;;;;;;;17.63;10.73;;;1.80;99.90;;;;;;5042662;28;20443;-77
2021/01/06 02:27:00;;;;;;;13.87;9.63;;;1.80;99.90;;;;;;5026471;28;20467;-77
2021/01/06 02:29:27;;;;;;;20.70;9.97;;;1.80;99.90;;;;;;5038133;28;20466;-77
2021/01/06 02:31:52;;;;;;;14.30;9.50;;;1.80;99.90;;;;;;5024886;28;20477;-77
2021/01/06 02:34:18;;;;;;;18.53;10.60;;;1.80;99.90;;;;;;5039610;28;20831;-77
2021/01/06 02:36:44;;;;;;;13.30;9.50;;;1.80;99.90;;;;;;5029390;28;20266;-78
2021/01/06 02:39:10;;;;;;;18.93;11.67;;;1.70;99.90;;;;;;5041061;28;20733;-78
2021/01/06 02:41:38;;;;;;;17.20;9.80;;;1.70;99.90;;;;;;5042231;28;20216;-78
2021/01/06 02:44:04;;;;;;;15.43;10.63;;;1.70;99.90;;;;;;5041022;28;20456;-78
2021/01/06 02:46:32;;;;;;;21.63;11.50;;;1.80;99.90;;;;;;5043047;28;20454;-78
2021/01/06 02:48:58;;;;;;;15.63;9.80;;;1.80;99.90;;;;;;5042540;28;20414;-77
2021/01/06 02:51:46;;;;;;;15.30;10.30;;;1.80;99.90;;;;;;5038646;28;20514;-77
2021/01/06 02:54:20;;;;;;;15.13;9.20;;;1.70;99.90;;;;;;5044977;28;20454;-79
2021/01/06 02:56:48;;;;;;;12.30;9.57;;;1.70;99.90;;;;;;5025252;28;20460;-78
2021/01/06 02:59:14;;;;;;;17.53;11.20;;;1.70;99.90;;;;;;5038216;28;20446;-78
2021/01/06 03:01:42;;;;;;;18.97;11.53;;;1.70;99.90;;;;;;5042925;28;20469;-78
2021/01/06 03:04:14;;;;;;;18.60;11.10;;;1.60;99.90;;;;;;5043655;28;20457;-76
2021/01/06 03:07:03;;;;;;;14.13;10.50;;;1.60;99.90;;;;;;5040070;28;20444;-75
2021/01/06 03:09:28;;;;;;;17.07;9.63;;;1.60;99.90;;;;;;5041747;28;20420;-76
2021/01/06 03:11:55;;;;;;;14.47;10.57;;;1.60;99.90;;;;;;5038246;28;20528;-76
2021/01/06 03:14:22;;;;;;;14.23;10.20;;;1.60;99.90;;;;;;5040758;28;20212;-76
2021/01/06 03:16:48;;;;;;;14.17;9.67;;;1.60;99.90;;;;;;5041688;28;20521;-77
2021/01/06 03:19:18;;;;;;;19.70;10.97;;;1.60;99.90;;;;;;5041438;28;20944;-77
2021/01/06 03:21:47;;;;;;;19.60;11.27;;;1.50;99.90;;;;;;5018624;28;20466;-77
2021/01/06 03:24:14;;;;;;;21.03;11.20;;;1.50;99.90;;;;;;5039759;28;20464;-77
2021/01/06 03:26:40;;;;;;;16.47;10.37;;;1.50;99.90;;;;;;5025388;28;20418;-76
2021/01/06 03:29:06;;;;;;;18.37;9.60;;;1.50;99.90;;;;;;5039516;28;20423;-77
2021/01/06 03:31:41;;;;;;;17.10;10.80;;;1.50;99.90;;;;;;5025254;28;20465;-77
2021/01/06 03:34:28;;;;;;;16.53;10.63;;;1.50;99.90;;;;;;5037367;28;20814;-76
2021/01/06 03:37:22;;;;;;;17.67;10.57;;;1.50;99.90;;;;;;5039230;28;20471;-77
2021/01/06 03:39:53;;;;;;;15.20;10.00;;;1.50;99.90;;;;;;5034640;28;20491;-78
2021/01/06 03:42:19;;;;;;;18.13;11.70;;;1.50;99.90;;;;;;5044124;28;20880;-77
2021/01/06 03:44:46;;;;;;;16.80;10.03;;;1.50;99.90;;;;;;5034757;28;20461;-78
2021/01/06 03:47:36;;;;;;;21.03;12.17;;;1.50;99.90;;;;;;5041124;28;20392;-77
2021/01/06 03:50:15;;;;;;;14.30;10.07;;;1.50;99.90;;;;;;5039835;28;20437;-78
2021/01/06 03:53:17;;;;;;;17.57;11.53;;;1.50;99.90;;;;;;5041624;28;20436;-78
2021/01/06 03:55:56;;;;;;;17.27;10.40;;;1.50;99.90;;;;;;5033822;28;20456;-78
2021/01/06 03:58:52;;;;;;;17.97;11.00;;;1.50;99.90;;;;;;5039300;28;20416;-78
2021/01/06 04:01:52;;;;;;;18.80;11.17;;;1.50;99.90;;;;;;5022449;28;20465;-78
2021/01/06 04:04:32;;;;;;;17.10;11.00;;;1.40;99.90;;;;;;5038143;28;20473;-78
2021/01/06 04:07:00;;;;;;;15.97;10.23;;;1.40;99.90;;;;;;5040015;28;20533;-78
2021/01/06 04:09:32;;;;;;;19.27;11.17;;;1.50;99.90;;;;;;5039509;28;20410;-78
2021/01/06 04:12:24;;;;;;;18.87;10.73;;;1.50;99.90;;;;;;5022473;28;20524;-78
2021/01/06 04:14:49;;;;;;;21.40;11.60;;;1.50;99.90;;;;;;5034271;28;20828;-78
2021/01/06 04:17:34;;;;;;;21.47;11.70;;;1.50;99.90;;;;;;5036598;28;20437;-77
2021/01/06 04:20:08;;;;;;;20.20;11.47;;;1.50;99.90;;;;;;5040663;28;20180;-75
2021/01/06 04:22:49;;;;;;;18.60;11.17;;;1.40;99.90;;;;;;5035856;28;20495;-77
2021/01/06 04:25:23;;;;;;;18.53;11.20;;;1.40;99.90;;;;;;5036231;28;20412;-78
2021/01/06 04:28:10;;;;;;;14.97;10.60;;;1.40;99.90;;;;;;5016705;28;20449;-77
2021/01/06 04:30:43;;;;;;;17.77;11.20;;;1.50;99.90;;;;;;5039016;28;20496;-78
2021/01/06 04:33:35;;;;;;;18.10;12.40;;;1.50;99.90;;;;;;5039104;28;20488;-78
2021/01/06 04:36:14;;;;;;;17.60;11.53;;;1.50;99.90;;;;;;5039605;28;20784;-79
2021/01/06 04:38:44;;;;;;;19.30;10.90;;;1.50;99.90;;;;;;5037325;28;20472;-78
2021/01/06 04:41:29;;;;;;;21.47;11.43;;;1.50;99.90;;;;;;5043657;28;20460;-77
2021/01/06 04:44:15;;;;;;;19.80;10.53;;;1.50;99.90;;;;;;5018538;28;20472;-78
2021/01/06 04:47:17;;;;;;;18.00;10.50;;;1.50;99.90;;;;;;5025312;28;20419;-79
2021/01/06 04:50:10;;;;;;;23.90;10.70;;;1.50;99.90;;;;;;5029387;28;20947;-78
2021/01/06 04:53:11;;;;;;;16.00;9.73;;;1.50;99.90;;;;;;5023903;28;20436;-77
2021/01/06 04:56:07;;;;;;;20.60;11.40;;;1.40;99.90;;;;;;5040190;28;20442;-78
2021/01/06 04:58:57;;;;;;;16.80;9.77;;;1.40;99.90;;;;;;5039612;28;20423;-77
2021/01/06 05:01:46;;;;;;;15.47;10.20;;;1.50;99.90;;;;;;5021120;28;20468;-79
2021/01/06 05:04:36;;;;;;;17.40;10.00;;;1.50;99.90;;;;;;5038336;28;20407;-79
2021/01/06 05:07:14;;;;;;;16.20;8.80;;;1.40;99.90;;;;;;5036365;28;20440;-78
2021/01/06 05:09:47;;;;;;;15.50;10.03;;;1.40;99.90;;;;;;5038252;28;20449;-78
2021/01/06 05:12:33;;;;;;;15.00;9.93;;;1.50;99.90;;;;;;5031460;28;21016;-78
2021/01/06 05:15:20;;;;;;;15.77;9.40;;;1.50;99.90;;;;;;5035719;28;20953;-79
2021/01/06 05:17:46;;;;;;;12.40;8.80;;;1.50;99.90;;;;;;5035174;28;20576;-78
2021/01/06 05:20:11;;;;;;;14.80;9.80;;;1.50;99.90;;;;;;5023629;28;20518;-79
2021/01/06 05:22:37;;;;;;;13.57;9.30;;;1.50;99.90;;;;;;5017918;28;20232;-78
2021/01/06 05:25:04;;;;;;;14.03;8.70;;;1.50;99.90;;;;;;5042099;28;20187;-78
2021/01/06 05:27:39;;;;;;;16.47;8.97;;;1.50;99.90;;;;;;5038614;28;20322;-78
2021/01/06 05:30:37;;;;;;;15.57;10.13;;;1.50;99.90;;;;;;5038803;28;20451;-77
2021/01/06 05:33:12;;;;;;;13.60;8.70;;;1.40;99.90;;;;;;5001512;28;20462;-77
2021/01/06 05:35:42;;;;;;;13.63;9.57;;;1.40;99.90;;;;;;5039999;28;20966;-77
2021/01/06 05:38:07;;;;;;;12.30;9.77;;;1.40;99.90;;;;;;5038161;28;20780;-77
2021/01/06 05:40:37;;;;;;;14.60;8.80;;;1.40;99.90;;;;;;5042174;28;20446;-77
2021/01/06 05:43:06;;;;;;;15.17;8.50;;;1.40;99.90;;;;;;5041985;28;20281;-77
2021/01/06 05:45:45;;;;;;;14.93;10.30;;;1.40;99.90;;;;;;5039200;28;20446;-78
2021/01/06 05:48:18;;;;;;;13.00;8.00;;;1.40;99.90;;;;;;5043188;28;20410;-77
2021/01/06 05:51:02;;;;;;;17.80;10.17;;;1.40;99.90;;;;;;5038894;28;20407;-77
2021/01/06 05:53:46;;;;;;;13.73;8.37;;;1.40;99.90;;;;;;5037576;28;20566;-78
2021/01/06 05:56:20;;;;;;;13.20;7.80;;;1.40;99.90;;;;;;5028225;28;20423;-78
2021/01/06 05:58:52;;;;;;;12.43;8.37;;;1.40;99.90;;;;;;5038760;28;20496;-77
2021/01/06 06:01:44;;;;;;;11.23;8.80;;;1.40;99.90;;;;;;5043980;28;21082;-77
2021/01/06 06:04:48;;;;;;;13.50;7.93;;;1.40;99.90;;;;;;5043624;28;20506;-78
2021/01/06 06:07:28;;;;;;;11.90;8.20;;;1.40;99.90;;;;;;5039923;28;20409;-77
2021/01/06 06:10:02;;;;;;;12.57;9.23;;;1.40;99.90;;;;;;5039009;28;20790;-78
2021/01/06 06:12:47;;;;;;;13.77;8.30;;;1.30;99.90;;;;;;5045125;28;20425;-77
2021/01/06 06:15:54;;;;;;;11.50;7.97;;;1.30;99.90;;;;;;5023409;28;20440;-77
2021/01/06 06:18:44;;;;;;;12.90;8.13;;;1.40;99.90;;;;;;4973258;28;20414;-78
2021/01/06 06:21:40;;;;;;;10.77;7.37;;;1.40;99.90;;;;;;4965501;28;20478;-77
2021/01/06 06:24:33;;;;;;;10.90;7.77;;;1.40;99.90;;;;;;5030880;28;20440;-78
2021/01/06 06:27:14;;;;;;;14.33;8.60;;;1.40;99.90;;;;;;5038136;28;20409;-77
2021/01/06 06:29:49;;;;;;;13.47;7.50;;;1.40;99.90;;;;;;5040847;28;20425;-77
2021/01/06 06:32:15;;;;;;;12.20;8.50;;;1.40;99.90;;;;;;5036389;28;20520;-78
2021/01/06 06:34:44;;;;;;;10.50;7.50;;;1.30;99.90;;;;;;5045600;28;20435;-78
2021/01/06 06:37:17;;;;;;;12.53;8.20;;;1.40;99.90;;;;;;5034254;28;20433;-78
2021/01/06 06:40:03;;;;;;;9.73;7.87;;;1.40;99.90;;;;;;5042536;28;20412;-78
2021/01/06 06:42:35;;;;;;;11.97;8.40;;;1.30;99.90;;;;;;5037257;28;20477;-77
2021/01/06 06:45:21;;;;;;;12.23;8.57;;;1.30;99.90;;;;;;5040952;28;20420;-78
2021/01/06 06:47:49;;;;;;;10.40;7.50;;;1.40;99.90;;;;;;5038724;28;20443;-78
2021/01/06 06:51:00;;;;;;;9.03;6.50;;;1.30;99.90;;;;;;5038394;28;20434;-78
2021/01/06 06:53:28;;;;;;;10.70;7.00;;;1.40;99.90;;;;;;5038567;28;20957;-77
2021/01/06 06:56:27;;;;;;;12.93;6.57;;;1.40;99.90;;;;;;5040642;28;20426;-78
2021/01/06 06:58:57;;;;;;;10.30;7.40;;;1.40;99.90;;;;;;5037536;28;20457;-78
2021/01/06 07:01:32;;;;;;;8.27;6.40;;;1.40;99.90;;;;;;5020331;28;20506;-78
2021/01/06 07:04:02;;;;;;;8.10;6.70;;;1.40;99.90;;;;;;5040052;28;20550;-78
2021/01/06 07:06:29;;;;;;;10.87;7.50;;;1.40;99.90;;;;;;5041792;28;20421;-77
2021/01/06 07:08:58;;;;;;;10.77;7.10;;;1.50;99.90;;;;;;5039196;28;20437;-77
2021/01/06 07:11:34;;;;;;;9.30;7.13;;;1.50;99.90;;;;;;5043501;28;20435;-77
2021/01/06 07:14:01;;;;;;;7.30;6.47;;;1.50;99.90;;;;;;5026256;28;20468;-77
2021/01/06 07:16:59;;;;;;;12.90;7.20;;;1.40;99.90;;;;;;5019654;28;21005;-75
2021/01/06 07:19:49;;;;;;;10.43;6.20;;;1.40;99.90;;;;;;5039913;28;20430;-74
2021/01/06 07:22:29;;;;;;;10.47;7.47;;;1.50;99.90;;;;;;5040062;28;20460;-74
2021/01/06 07:25:02;;;;;;;10.50;6.30;;;1.50;99.90;;;;;;5039530;28;20415;-74
2021/01/06 07:27:30;;;;;;;10.87;7.17;;;1.50;99.90;;;;;;5039169;28;20421;-74
2021/01/06 07:29:56;;;;;;;8.40;6.20;;;1.50;99.90;;;;;;5038273;28;20422;-74
2021/01/06 07:32:35;;;;;;;8.80;6.77;;;1.50;99.90;;;;;;5041571;28;20468;-73
2021/01/06 07:35:09;;;;;;;13.60;7.87;;;1.60;99.90;;;;;;5042933;28;20196;-74
2021/01/06 07:37:39;;;;;;;13.73;5.77;;;1.50;99.90;;;;;;5035903;28;20512;-74
2021/01/06 07:40:16;;;;;;;10.43;7.30;;;1.50;99.90;;;;;;5043291;28;20389;-74
2021/01/06 07:42:49;;;;;;;11.30;6.80;;;1.50;99.90;;;;;;5038799;28;20461;-74
2021/01/06 07:45:20;;;;;;;8.70;6.23;;;1.50;99.90;;;;;;5036019;28;20437;-74
2021/01/06 07:48:24;;;;;;;9.93;6.33;;;1.50;99.90;;;;;;5017331;28;20464;-73
2021/01/06 07:51:01;;;;;;;7.73;6.30;;;1.60;99.90;;;;;;5023001;28;20405;-74
2021/01/06 07:53:40;;;;;;;8.10;6.37;;;1.60;99.90;;;;;;5038741;28;20482;-74
2021/01/06 07:56:34;;;;;;;8.23;6.63;;;1.60;99.90;;;;;;5025354;28;20431;-74
2021/01/06 07:59:02;;;;;;;8.07;6.50;;;1.70;99.90;;;;;;5035793;28;20446;-74
2021/01/06 08:01:49;;;;;;;10.47;7.00;;;1.60;99.90;;;;;;5042645;28;20552;-74
2021/01/06 08:04:42;;;;;;;14.30;7.80;;;1.60;99.90;;;;;;5035212;28;20420;-74
2021/01/06 08:07:18;;;;;;;9.33;6.40;;;1.60;99.90;;;;;;5034726;28;20419;-74
2021/01/06 08:09:44;;;;;;;10.60;6.60;;;1.60;99.90;;;;;;5033910;28;20399;-74
2021/01/06 08:12:40;;;;;;;9.73;7.17;;;1.70;99.90;;;;;;5022797;28;20419;-74
2021/01/06 08:15:18;;;;;;;11.60;6.60;;;1.70;99.90;;;;;;5038881;28;20982;-74
2021/01/06 08:17:50;;;;;;;10.50;6.17;;;1.70;99.90;;;;;;5035902;28;20422;-74
2021/01/06 08:20:23;;;;;;;9.63;7.00;;;1.70;99.90;;;;;;5032440;28;20446;-74
2021/01/06 08:23:13;;;;;;;8.93;6.17;;;1.70;99.90;;;;;;5039179;28;20431;-74
2021/01/06 08:25:41;;;;;;;7.67;5.80;;;1.70;99.90;;;;;;5039355;28;20452;-73
2021/01/06 08:28:18;;;;;;;7.83;6.33;;;1.60;99.90;;;;;;5024606;28;20907;-74
2021/01/06 08:30:44;;;;;;;8.90;5.93;;;1.70;99.90;;;;;;5033073;28;20435;-74
2021/01/06 08:33:13;;;;;;;10.50;7.00;;;1.70;99.90;;;;;;5040482;28;20476;-73
2021/01/06 08:35:44;;;;;;;9.13;6.93;;;1.60;99.90;;;;;;5037875;28;20678;-74
2021/01/06 08:38:29;;;;;;;9.10;6.67;;;1.60;99.90;;;;;;5042748;28;20772;-74
2021/01/06 08:40:55;;;;;;;9.00;6.60;;;1.60;99.90;;;;;;5035684;28;20475;-74
2021/01/06 08:43:21;;;;;;;11.87;7.40;;;1.50;99.90;;;;;;5037223;28;20817;-74
2021/01/06 08:45:54;;;;;;;9.70;7.20;;;1.50;99.90;;;;;;5037829;28;20409;-73
2021/01/06 08:48:35;;;;;;;9.77;7.90;;;1.50;99.90;;;;;;5037565;28;20435;-74
2021/01/06 08:51:09;;;;;;;14.30;7.60;;;1.50;99.90;;;;;;5041139;28;20773;-74
2021/01/06 08:53:37;;;;;;;7.53;5.70;;;1.50;99.90;;;;;;5036324;28;20480;-74
2021/01/06 08:56:08;;;;;;;11.20;8.00;;;1.50;99.90;;;;;;5041306;28;20425;-73
2021/01/06 08:58:46;;;;;;;8.67;6.23;;;1.40;99.90;;;;;;5022740;28;20446;-73
2021/01/06 09:01:35;;;;;;;11.60;7.67;;;1.50;99.90;;;;;;5036883;28;20556;-76
2021/01/06 09:04:14;;;;;;;9.27;7.40;;;1.50;99.90;;;;;;4992730;28;20463;-73
2021/01/06 09:06:52;;;;;;;13.13;8.73;;;1.50;99.90;;;;;;5036368;28;20413;-74
2021/01/06 09:09:36;;;;;;;9.17;7.63;;;1.50;99.90;;;;;;5034244;28;20583;-74
2021/01/06 09:12:02;;;;;;;7.93;7.07;;;1.50;99.90;;;;;;5038260;28;20441;-74
2021/01/06 09:14:36;;;;;;;10.40;7.67;;;1.60;99.90;;;;;;5034227;28;20475;-74
2021/01/06 09:17:10;;;;;;;13.13;8.77;;;1.60;99.90;;;;;;5037953;28;20981;-74
2021/01/06 09:19:47;;;;;;;10.73;7.90;;;1.60;99.90;;;;;;5039384;28;20442;-74
2021/01/06 09:22:16;;;;;;;12.60;7.97;;;1.60;99.90;;;;;;5042236;28;20462;-74
2021/01/06 09:24:43;;;;;;;11.93;7.50;;;1.60;99.90;;;;;;5037274;28;20426;-74
2021/01/06 09:27:39;;;;;;;10.93;7.80;;;1.60;99.90;;;;;;5021066;28;20421;-74
2021/01/06 09:30:32;;;;;;;8.30;7.10;;;1.70;99.90;;;;;;5035637;28;20444;-75
2021/01/06 09:33:00;;;;;;;11.37;8.50;;;1.60;99.90;;;;;;5037911;28;20973;-75
2021/01/06 09:35:31;;;;;;;12.03;8.57;;;1.60;99.90;;;;;;5039628;28;20434;-75
2021/01/06 09:37:58;;;;;;;9.97;8.10;;;1.60;99.90;;;;;;5038602;28;20803;-75
2021/01/06 09:40:27;;;;;;;11.60;7.20;;;1.50;99.90;;;;;;5037590;28;20476;-75
2021/01/06 09:43:04;;;;;;;14.83;12.20;;;1.50;99.90;;;;;;5041802;28;21024;-75
2021/01/06 09:45:30;;;;;;;13.43;9.53;;;1.50;99.90;;;;;;5035975;28;20444;-75
2021/01/06 09:47:59;;;;;;;12.50;9.20;;;1.50;99.90;;;;;;5039786;28;20439;-75
2021/01/06 09:50:33;;;;;;;11.37;8.97;;;1.50;99.90;;;;;;5041345;28;20507;-75
2021/01/06 09:53:03;;;;;;;9.30;7.57;;;1.50;99.90;;;;;;5036514;28;20546;-75
2021/01/06 09:55:42;;;;;;;13.07;9.57;;;1.60;99.90;;;;;;5022695;28;20489;-75
2021/01/06 09:58:30;;;;;;;12.33;9.00;;;1.60;99.90;;;;;;5034262;28;20478;-75
2021/01/06 10:01:21;;;;;;;11.97;8.73;;;1.60;99.90;;;;;;5035110;28;21055;-75
2021/01/06 10:03:49;;;;;;;11.50;8.40;;;1.70;99.90;;;;;;5036637;28;20837;-75
2021/01/06 10:06:35;;;;;;;15.03;9.13;;;1.60;99.90;;;;;;5016855;28;20427;-75
2021/01/06 10:09:18;;;;;;;20.17;11.93;;;1.70;99.90;;;;;;5038971;28;20391;-75
2021/01/06 10:12:11;;;;;;;15.43;10.40;;;1.70;99.90;;;;;;5033023;28;20429;-75
2021/01/06 10:14:58;;;;;;;15.93;10.70;;;1.60;99.90;;;;;;5037112;28;20460;-75
2021/01/06 10:17:28;;;;;;;14.50;10.00;;;1.70;99.90;;;;;;5033729;28;20490;-75
2021/01/06 10:20:21;;;;;;;11.93;9.53;;;1.70;99.90;;;;;;5022833;28;20444;-76
2021/01/06 10:22:57;;;;;;;17.43;9.17;;;1.70;99.90;;;;;;5034542;28;20460;-75
2021/01/06 10:25:32;;;;;;;14.10;9.33;;;1.70;99.90;;;;;;5038215;28;20443;-75
2021/01/06 10:28:03;;;;;;;10.67;8.37;;;1.70;99.90;;;;;;5042786;28;20392;-75
2021/01/06 10:30:31;;;;;;;13.43;8.70;;;1.80;99.90;;;;;;5022794;28;20961;-75
2021/01/06 10:33:26;;;;;;;12.77;9.73;;;1.80;99.90;;;;;;5042939;28;20442;-75
2021/01/06 10:35:54;;;;;;;13.03;9.33;;;1.80;99.90;;;;;;5022127;28;20414;-74
2021/01/06 10:38:27;;;;;;;14.77;8.67;;;1.80;99.90;;;;;;5042226;28;20421;-75
2021/01/06 10:41:18;;;;;;;12.43;8.93;;;1.80;99.90;;;;;;5035901;28;20472;-75
2021/01/06 10:43:57;;;;;;;18.67;10.30;;;1.80;99.90;;;;;;5030971;28;20447;-75
2021/01/06 10:46:47;;;;;;;15.20;10.47;;;1.90;99.90;;;;;;5037803;28;20470;-75
2021/01/06 10:49:18;;;;;;;14.50;9.77;;;1.90;99.90;;;;;;5045333;28;20447;-76
2021/01/06 10:52:15;;;;;;;10.80;8.70;;;1.90;99.90;;;;;;5017833;28;20407;-75
2021/01/06 10:54:46;;;;;;;12.33;9.10;;;1.90;99.90;;;;;;5043362;28;20510;-82
2021/01/06 10:57:45;;;;;;;15.10;10.13;;;1.80;99.90;;;;;;5037652;28;20415;-76
2021/01/06 11:00:22;;;;;;;16.93;9.80;;;1.70;99.90;;;;;;5040693;28;20423;-82
2021/01/06 11:02:56;;;;;;;14.90;10.00;;;1.80;99.90;;;;;;5039796;28;20786;-74
2021/01/06 11:05:32;;;;;;;11.87;8.23;;;1.80;99.90;;;;;;5038309;28;20403;-75
2021/01/06 11:08:32;;;;;;;11.90;8.70;;;1.80;99.90;;;;;;5036288;28;20863;-75
2021/01/06 11:11:25;;;;;;;14.87;9.97;;;1.80;99.90;;;;;;5038753;28;20521;-75
2021/01/06 11:14:15;;;;;;;14.17;9.87;;;1.80;99.90;;;;;;5032297;28;20437;-74
2021/01/06 11:16:54;;;;;;;14.43;9.07;;;1.80;99.90;;;;;;5035214;28;20778;-74
2021/01/06 11:19:43;;;;;;;17.23;11.33;;;1.80;99.90;;;;;;5017350;28;20918;-75
2021/01/06 11:22:35;;;;;;;15.37;10.53;;;1.80;99.90;;;;;;5040592;28;20464;-75
2021/01/06 11:25:26;;;;;;;14.90;10.27;;;1.90;99.90;;;;;;5030907;28;20456;-75
2021/01/06 11:28:03;;;;;;;19.97;11.00;;;1.80;99.90;;;;;;5037977;28;20420;-75
2021/01/06 11:30:34;;;;;;;17.10;10.67;;;1.90;99.90;;;;;;5038518;28;20914;-74
2021/01/06 11:33:17;;;;;;;18.07;10.37;;;1.90;99.90;;;;;;5042367;28;20444;-74
2021/01/06 11:35:58;;;;;;;16.87;11.33;;;1.90;99.90;;;;;;5039021;28;20431;-75
2021/01/06 11:38:47;;;;;;;12.67;8.43;;;1.80;99.90;;;;;;5037816;28;20395;-74
2021/01/06 11:41:35;;;;;;;15.90;11.17;;;1.90;99.90;;;;;;5032368;28;20845;-74
2021/01/06 11:44:21;;;;;;;17.17;10.80;;;1.90;99.90;;;;;;5034820;28;20443;-73
2021/01/06 11:46:53;;;;;;;14.60;9.50;;;1.90;99.90;;;;;;5033750;28;20431;-74
2021/01/06 11:49:38;;;;;;;14.43;10.50;;;1.90;99.90;;;;;;5039593;28;20428;-74
2021/01/06 11:52:37;;;;;;;13.70;9.87;;;1.90;99.90;;;;;;5038805;28;20867;-75
2021/01/06 11:55:26;;;;;;;13.10;10.00;;;1.90;99.90;;;;;;5041143;28;20848;-74
2021/01/06 11:58:13;;;;;;;18.40;12.07;;;1.90;99.90;;;;;;5014227;28;20440;-75
2021/01/06 12:00:42;;;;;;;15.33;11.03;;;1.90;99.90;;;;;;5037932;28;20442;-74
2021/01/06 12:03:07;;;;;;;19.97;12.10;;;1.90;99.90;;;;;;5038523;28;20445;-75
2021/01/06 12:05:36;;;;;;;16.50;9.83;;;1.90;99.90;;;;;;5039286;28;20411;-74
2021/01/06 12:08:43;;;;;;;22.43;12.27;;;1.90;99.90;;;;;;5028667;28;20191;-74
2021/01/06 12:11:26;;;;;;;16.97;10.77;;;2.00;99.90;;;;;;5041923;28;20398;-74
2021/01/06 12:14:28;;;;;;;20.40;12.30;;;1.90;99.90;;;;;;5034528;28;20440;-74
2021/01/06 12:17:08;;;;;;;17.87;11.70;;;2.00;99.90;;;;;;5035254;28;20491;-74
2021/01/06 12:19:52;;;;;;;15.50;10.73;;;2.00;99.90;;;;;;5021966;28;20474;-74
2021/01/06 12:22:20;;;;;;;21.30;12.70;;;2.00;99.90;;;;;;5036079;28;20466;-74
2021/01/06 12:24:55;;;;;;;16.17;11.20;;;2.00;99.90;;;;;;5030756;28;20453;-74
2021/01/06 12:27:35;;;;;;;19.73;12.00;;;2.00;99.90;;;;;;5030707;28;20413;-74
2021/01/06 12:30:23;;;;;;;19.77;12.33;;;2.00;99.90;;;;;;5037442;28;20746;-74
2021/01/06 12:33:33;;;;;;;15.90;9.50;;;2.00;99.90;;;;;;5035625;28;20420;-75
2021/01/06 12:36:18;;;;;;;19.10;11.53;;;2.10;99.90;;;;;;4999910;28;20471;-74
2021/01/06 12:38:44;;;;;;;17.90;10.40;;;2.10;99.90;;;;;;5039893;28;20429;-74
2021/01/06 12:41:16;;;;;;;13.93;10.13;;;2.20;99.90;;;;;;5037479;28;20549;-74
2021/01/06 12:43:58;;;;;;;13.97;11.07;;;2.10;99.90;;;;;;5024870;28;20811;-74
2021/01/06 12:46:47;;;;;;;18.20;11.23;;;2.10;99.90;;;;;;5033429;28;20433;-74
2021/01/06 12:49:14;;;;;;;15.60;10.33;;;2.00;99.90;;;;;;5040338;28;20757;-74
2021/01/06 12:52:08;;;;;;;15.67;10.70;;;2.10;99.90;;;;;;5041933;28;20436;-73
2021/01/06 12:54:41;;;;;;;11.50;8.90;;;2.10;99.90;;;;;;5038544;28;20441;-74
2021/01/06 12:57:30;;;;;;;14.60;9.60;;;2.00;99.90;;;;;;5041582;28;20441;-74
2021/01/06 13:00:03;;;;;;;17.47;9.90;;;2.00;99.90;;;;;;5026255;28;20419;-74
2021/01/06 13:02:40;;;;;;;13.33;9.67;;;2.00;99.90;;;;;;5040564;28;20559;-74
2021/01/06 13:05:23;;;;;;;15.00;11.30;;;2.00;99.90;;;;;;5038868;28;20406;-74
2021/01/06 13:07:52;;;;;;;12.90;9.40;;;2.00;99.90;;;;;;5030615;28;20429;-74
2021/01/06 13:10:18;;;;;;;14.23;9.80;;;2.00;99.90;;;;;;5014829;28;20419;-75
2021/01/06 13:12:51;;;;;;;12.27;9.20;;;2.00;99.90;;;;;;5038637;28;20425;-74
2021/01/06 13:15:39;;;;;;;12.20;8.60;;;2.00;99.90;;;;;;5031572;28;20194;-74
2021/01/06 13:18:12;;;;;;;13.87;9.77;;;2.00;99.90;;;;;;5040736;28;20438;-74
2021/01/06 13:20:45;;;;;;;13.70;9.30;;;2.00;99.90;;;;;;5039350;28;20433;-73
2021/01/06 13:23:36;;;;;;;14.27;8.60;;;2.00;99.90;;;;;;5033035;28;21040;-74
2021/01/06 13:26:17;;;;;;;11.20;8.80;;;2.00;99.90;;;;;;5037158;28;20413;-75
2021/01/06 13:29:09;;;;;;;13.00;10.00;;;2.00;99.90;;;;;;5037192;28;20441;-75
2021/01/06 13:31:58;;;;;;;11.77;8.67;;;2.10;99.90;;;;;;5034207;28;20449;-75
2021/01/06 13:34:28;;;;;;;12.40;9.10;;;2.10;99.90;;;;;;5037997;28;20457;-75